Time;durP1;ratioP1;P1;durP2;ratioP2;P2;SDS_P1;SDS_P2;PMS_P1;PMS_P2;Temp;Humidity;BMP_temperature;BMP_pressure;BME280_temperature;BME280_humidity;BME280_pressure;Samples;Min_cycle;Max_cycle;Signal;HPM_P1;HPM_P2
2024/02/01 00:02:20;;;;;;;16.20;7.47;;;;;;;;;;5027377;28;20660;-69
2024/02/01 00:04:45;;;;;;;13.70;7.50;;;;;;;;;;5029004;28;20197;-68
2024/02/01 00:07:11;;;;;;;13.53;8.30;;;;;;;;;;5027360;28;20178;-68
2024/02/01 00:09:36;;;;;;;15.00;7.57;;;;;;;;;;5022583;28;20217;-68
2024/02/01 00:12:01;;;;;;;11.77;7.60;;;;;;;;;;5011445;28;20721;-69
2024/02/01 00:14:26;;;;;;;14.03;7.57;;;;;;;;;;5029590;28;20235;-68
2024/02/01 00:16:51;;;;;;;11.33;6.27;;;;;;;;;;5029547;28;20672;-68
2024/02/01 00:19:17;;;;;;;21.10;8.37;;;;;;;;;;5030451;28;20256;-68
2024/02/01 00:21:42;;;;;;;17.47;8.33;;;;;;;;;;5026351;28;20661;-69
2024/02/01 00:24:08;;;;;;;15.03;7.13;;;;;;;;;;5030531;28;20277;-68
2024/02/01 00:26:33;;;;;;;15.23;7.87;;;;;;;;;;5029694;28;20268;-69
2024/02/01 00:28:59;;;;;;;16.83;7.93;;;;;;;;;;5030325;28;20274;-69
2024/02/01 00:31:24;;;;;;;13.60;7.07;;;;;;;;;;5023955;28;20693;-68
2024/02/01 00:33:49;;;;;;;13.33;6.47;;;;;;;;;;5035315;28;20696;-67
2024/02/01 00:36:14;;;;;;;15.13;7.03;;;;;;;;;;5027243;28;20220;-68
2024/02/01 00:38:39;;;;;;;16.73;7.60;;;;;;;;;;5030590;28;20174;-68
2024/02/01 00:41:05;;;;;;;12.40;7.47;;;;;;;;;;5029855;28;20281;-69
2024/02/01 00:43:30;;;;;;;10.77;6.43;;;;;;;;;;5030545;28;20177;-69
2024/02/01 00:45:55;;;;;;;17.07;6.73;;;;;;;;;;5022876;28;20700;-69
2024/02/01 00:48:21;;;;;;;16.80;6.87;;;;;;;;;;5029030;28;20566;-69
2024/02/01 00:50:47;;;;;;;19.90;6.47;;;;;;;;;;5029965;28;20928;-69
2024/02/01 00:53:12;;;;;;;13.73;7.50;;;;;;;;;;5027319;28;20182;-69
2024/02/01 00:55:37;;;;;;;17.57;7.87;;;;;;;;;;5030232;28;20178;-69
2024/02/01 00:58:02;;;;;;;22.67;7.87;;;;;;;;;;5027006;28;20185;-68
2024/02/01 01:00:27;;;;;;;19.87;8.00;;;;;;;;;;5028926;28;20198;-69
2024/02/01 01:02:53;;;;;;;18.40;8.17;;;;;;;;;;5021302;28;20231;-70
2024/02/01 01:05:18;;;;;;;21.47;8.53;;;;;;;;;;5030466;28;20269;-69
2024/02/01 01:07:43;;;;;;;19.80;9.13;;;;;;;;;;5032100;28;20558;-68
2024/02/01 01:10:09;;;;;;;18.70;6.93;;;;;;;;;;5032022;28;20712;-68
2024/02/01 01:12:34;;;;;;;21.67;6.43;;;;;;;;;;5033012;28;20190;-69
2024/02/01 01:14:59;;;;;;;12.93;5.83;;;;;;;;;;5028468;28;20293;-69
2024/02/01 01:17:24;;;;;;;18.50;6.87;;;;;;;;;;5031332;28;20195;-69
2024/02/01 01:19:50;;;;;;;13.70;6.70;;;;;;;;;;5022665;28;20203;-68
2024/02/01 01:22:15;;;;;;;12.53;6.07;;;;;;;;;;5031870;28;20240;-69
2024/02/01 01:24:40;;;;;;;21.90;7.13;;;;;;;;;;5033150;28;20174;-69
2024/02/01 01:27:06;;;;;;;15.60;7.10;;;;;;;;;;5031605;28;20174;-68
2024/02/01 01:29:31;;;;;;;19.67;8.20;;;;;;;;;;5031707;28;20247;-69
2024/02/01 01:31:56;;;;;;;19.13;7.47;;;;;;;;;;5031667;28;20269;-67
2024/02/01 01:34:21;;;;;;;17.70;7.20;;;;;;;;;;5032534;28;20348;-68
2024/02/01 01:36:47;;;;;;;13.20;7.23;;;;;;;;;;5032118;28;20290;-68
2024/02/01 01:39:12;;;;;;;19.57;7.97;;;;;;;;;;5023122;28;20551;-68
2024/02/01 01:41:42;;;;;;;15.47;7.70;;;;;;;;;;5031187;28;20262;-68
2024/02/01 01:44:07;;;;;;;20.90;7.60;;;;;;;;;;5032516;28;20696;-69
2024/02/01 01:46:33;;;;;;;20.50;7.93;;;;;;;;;;5030658;28;20179;-68
2024/02/01 01:48:58;;;;;;;19.97;7.73;;;;;;;;;;5029187;28;20174;-68
2024/02/01 01:51:23;;;;;;;24.20;6.90;;;;;;;;;;5030312;28;20234;-68
2024/02/01 01:53:49;;;;;;;24.90;6.47;;;;;;;;;;5029941;28;20198;-68
2024/02/01 01:56:15;;;;;;;17.33;7.33;;;;;;;;;;5030375;28;20210;-68
2024/02/01 01:58:40;;;;;;;19.33;6.07;;;;;;;;;;5024554;28;20186;-69
2024/02/01 02:01:06;;;;;;;23.47;7.23;;;;;;;;;;5027013;28;20202;-69
2024/02/01 02:03:32;;;;;;;19.23;5.53;;;;;;;;;;5025830;28;20189;-70
2024/02/01 02:05:58;;;;;;;23.50;7.37;;;;;;;;;;5026359;28;20197;-69
2024/02/01 02:08:23;;;;;;;19.27;5.63;;;;;;;;;;5029365;28;20178;-69
2024/02/01 02:10:48;;;;;;;21.57;5.57;;;;;;;;;;5062484;22;20602;-71
2024/02/01 02:13:14;;;;;;;17.60;6.47;;;;;;;;;;5052089;28;20710;-71
2024/02/01 02:15:39;;;;;;;23.27;6.93;;;;;;;;;;5050930;28;20174;-72
2024/02/01 02:18:09;;;;;;;17.57;5.50;;;;;;;;;;5052516;28;20173;-71
2024/02/01 02:20:36;;;;;;;16.03;6.23;;;;;;;;;;5052506;28;20277;-71
2024/02/01 02:23:02;;;;;;;29.10;6.90;;;;;;;;;;5029190;28;20174;-71
2024/02/01 02:25:27;;;;;;;26.57;7.20;;;;;;;;;;5049869;28;20235;-72
2024/02/01 02:27:53;;;;;;;17.30;6.40;;;;;;;;;;5033457;28;20186;-72
2024/02/01 02:30:18;;;;;;;21.23;6.40;;;;;;;;;;5052196;28;20238;-72
2024/02/01 02:32:44;;;;;;;21.93;6.93;;;;;;;;;;5030789;28;20263;-72
2024/02/01 02:35:12;;;;;;;16.73;6.70;;;;;;;;;;5049485;28;20673;-72
2024/02/01 02:37:43;;;;;;;17.90;6.10;;;;;;;;;;5052246;28;20560;-72
2024/02/01 02:40:09;;;;;;;32.87;7.80;;;;;;;;;;5046676;28;20208;-72
2024/02/01 02:42:34;;;;;;;18.80;5.87;;;;;;;;;;5025929;28;20183;-72
2024/02/01 02:44:59;;;;;;;35.67;7.87;;;;;;;;;;5050366;28;20188;-72
2024/02/01 02:47:25;;;;;;;11.60;4.23;;;;;;;;;;5039811;28;20189;-72
2024/02/01 02:49:51;;;;;;;18.07;5.57;;;;;;;;;;5050834;28;20622;-72
2024/02/01 02:52:16;;;;;;;21.37;7.33;;;;;;;;;;5032616;28;20757;-72
2024/02/01 02:54:41;;;;;;;19.83;5.23;;;;;;;;;;5050183;28;20209;-72
2024/02/01 02:57:07;;;;;;;17.47;5.10;;;;;;;;;;5049634;28;20182;-72
2024/02/01 02:59:36;;;;;;;21.93;4.27;;;;;;;;;;5047061;28;20173;-72
2024/02/01 03:02:01;;;;;;;15.83;4.47;;;;;;;;;;5045215;28;20438;-72
2024/02/01 03:04:26;;;;;;;13.03;3.20;;;;;;;;;;5029345;28;20683;-73
2024/02/01 03:06:51;;;;;;;9.13;2.80;;;;;;;;;;5029903;28;20202;-73
2024/02/01 03:09:16;;;;;;;11.10;3.73;;;;;;;;;;5043157;28;20265;-73
2024/02/01 03:11:42;;;;;;;10.80;3.17;;;;;;;;;;5050366;28;20213;-72
2024/02/01 03:14:11;;;;;;;17.17;3.83;;;;;;;;;;5042581;28;20259;-72
2024/02/01 03:16:36;;;;;;;15.60;3.63;;;;;;;;;;5038009;28;20180;-72
2024/02/01 03:19:01;;;;;;;17.77;3.17;;;;;;;;;;5028110;28;20177;-71
2024/02/01 03:21:26;;;;;;;17.23;2.90;;;;;;;;;;5046868;28;20700;-71
2024/02/01 03:23:51;;;;;;;11.93;2.93;;;;;;;;;;5043804;28;20186;-72
2024/02/01 03:26:17;;;;;;;14.07;3.13;;;;;;;;;;5030913;28;20193;-72
2024/02/01 03:28:44;;;;;;;21.77;3.90;;;;;;;;;;5043458;28;20519;-72
2024/02/01 03:31:09;;;;;;;10.97;3.20;;;;;;;;;;5043960;28;20202;-72
2024/02/01 03:33:55;;;;;;;12.70;3.17;;;;;;;;;;5050328;28;20212;-72
2024/02/01 03:36:20;;;;;;;13.00;3.13;;;;;;;;;;5044434;28;20190;-73
2024/02/01 03:38:47;;;;;;;8.50;2.10;;;;;;;;;;5025171;28;20173;-73
2024/02/01 03:41:12;;;;;;;18.23;4.00;;;;;;;;;;5043782;28;20666;-72
2024/02/01 03:43:38;;;;;;;17.20;2.30;;;;;;;;;;5042421;28;20188;-72
2024/02/01 03:46:03;;;;;;;12.40;2.07;;;;;;;;;;5029220;28;20193;-72
2024/02/01 03:48:29;;;;;;;9.87;2.17;;;;;;;;;;5048499;28;20184;-72
2024/02/01 03:50:54;;;;;;;13.73;2.17;;;;;;;;;;5046201;28;20190;-71
2024/02/01 03:53:19;;;;;;;11.20;2.40;;;;;;;;;;5042616;28;20543;-71
2024/02/01 03:55:48;;;;;;;16.30;3.13;;;;;;;;;;5043546;28;20170;-71
2024/02/01 03:58:14;;;;;;;15.00;2.13;;;;;;;;;;5045187;28;20176;-71
2024/02/01 04:00:40;;;;;;;12.60;1.80;;;;;;;;;;5042117;28;20196;-72
2024/02/01 04:03:13;;;;;;;11.90;2.10;;;;;;;;;;5049589;28;20257;-72
2024/02/01 04:05:38;;;;;;;10.00;2.40;;;;;;;;;;5031424;28;20174;-72
2024/02/01 04:08:07;;;;;;;11.40;2.70;;;;;;;;;;5050545;28;20200;-72
2024/02/01 04:10:35;;;;;;;14.63;2.60;;;;;;;;;;5047557;28;20216;-72
2024/02/01 04:13:01;;;;;;;11.07;2.17;;;;;;;;;;5035476;28;20208;-72
2024/02/01 04:15:26;;;;;;;8.70;2.30;;;;;;;;;;5039629;28;20546;-72
2024/02/01 04:17:51;;;;;;;5.83;1.80;;;;;;;;;;5042851;28;20181;-72
2024/02/01 04:20:17;;;;;;;15.53;2.50;;;;;;;;;;5043960;28;20201;-72
2024/02/01 04:22:42;;;;;;;9.30;2.43;;;;;;;;;;5042313;28;20272;-72
2024/02/01 04:25:08;;;;;;;11.30;2.23;;;;;;;;;;5038595;28;20174;-72
2024/02/01 04:27:34;;;;;;;13.53;3.43;;;;;;;;;;5027588;28;20756;-72
2024/02/01 04:29:59;;;;;;;11.60;1.80;;;;;;;;;;5036007;28;20238;-72
2024/02/01 04:32:24;;;;;;;9.97;2.30;;;;;;;;;;5044111;28;20560;-72
2024/02/01 04:34:50;;;;;;;10.97;2.40;;;;;;;;;;5040181;28;20245;-72
2024/02/01 04:37:15;;;;;;;11.53;2.77;;;;;;;;;;5047998;28;20170;-72
2024/02/01 04:39:41;;;;;;;11.60;2.07;;;;;;;;;;5036402;28;20583;-73
2024/02/01 04:42:29;;;;;;;13.73;3.10;;;;;;;;;;5042355;28;20182;-72
2024/02/01 04:44:57;;;;;;;10.57;2.27;;;;;;;;;;5031091;28;20204;-72
2024/02/01 04:47:23;;;;;;;9.97;1.67;;;;;;;;;;5042023;28;20274;-72
2024/02/01 04:49:48;;;;;;;11.83;2.73;;;;;;;;;;5029192;28;20814;-71
2024/02/01 04:52:13;;;;;;;18.43;2.60;;;;;;;;;;5048973;28;20177;-71
2024/02/01 04:54:39;;;;;;;13.13;2.93;;;;;;;;;;5043664;28;20697;-71
2024/02/01 04:57:08;;;;;;;13.67;2.67;;;;;;;;;;5041163;28;20299;-71
2024/02/01 04:59:33;;;;;;;12.73;2.77;;;;;;;;;;5036604;28;20499;-73
2024/02/01 05:02:04;;;;;;;17.30;3.00;;;;;;;;;;5036949;28;20178;-71
2024/02/01 05:04:29;;;;;;;8.73;2.50;;;;;;;;;;5045747;28;20260;-71
2024/02/01 05:06:54;;;;;;;20.07;3.07;;;;;;;;;;5046436;28;20319;-71
2024/02/01 05:09:26;;;;;;;14.63;2.50;;;;;;;;;;5043540;28;20328;-71
2024/02/01 05:11:54;;;;;;;9.17;3.07;;;;;;;;;;5024691;28;20201;-72
2024/02/01 05:14:20;;;;;;;15.43;2.47;;;;;;;;;;5028884;28;20201;-72
2024/02/01 05:16:45;;;;;;;11.37;2.30;;;;;;;;;;5040515;28;20182;-72
2024/02/01 05:19:10;;;;;;;12.20;2.77;;;;;;;;;;5035210;28;20527;-72
2024/02/01 05:21:35;;;;;;;17.27;3.07;;;;;;;;;;5042135;28;20692;-72
2024/02/01 05:24:01;;;;;;;10.67;3.70;;;;;;;;;;5047129;28;20654;-72
2024/02/01 05:26:26;;;;;;;11.77;2.77;;;;;;;;;;5042702;28;20437;-71
2024/02/01 05:28:52;;;;;;;8.60;2.50;;;;;;;;;;5041005;28;20204;-71
2024/02/01 05:31:19;;;;;;;14.50;3.13;;;;;;;;;;5029630;28;20204;-72
2024/02/01 05:33:44;;;;;;;9.07;2.70;;;;;;;;;;5045431;28;20700;-71
2024/02/01 05:36:09;;;;;;;11.40;2.47;;;;;;;;;;5045847;28;20196;-72
2024/02/01 05:38:35;;;;;;;10.53;2.47;;;;;;;;;;5045968;28;20209;-72
2024/02/01 05:41:01;;;;;;;17.13;3.63;;;;;;;;;;5040902;28;20198;-72
2024/02/01 05:43:27;;;;;;;17.90;4.70;;;;;;;;;;5030016;28;20177;-72
2024/02/01 05:45:52;;;;;;;20.23;3.27;;;;;;;;;;5045440;28;20178;-72
2024/02/01 05:48:18;;;;;;;12.23;3.27;;;;;;;;;;5044472;28;20174;-71
2024/02/01 05:50:43;;;;;;;17.50;3.00;;;;;;;;;;5025678;28;20202;-71
2024/02/01 05:53:09;;;;;;;7.97;2.43;;;;;;;;;;5046691;28;20173;-71
2024/02/01 05:55:34;;;;;;;19.70;3.83;;;;;;;;;;5034720;28;20194;-71
2024/02/01 05:57:59;;;;;;;14.30;2.93;;;;;;;;;;5043632;28;20178;-71
2024/02/01 06:00:25;;;;;;;17.37;3.03;;;;;;;;;;5041234;28;20202;-71
2024/02/01 06:02:50;;;;;;;15.43;2.37;;;;;;;;;;5044807;28;20231;-71
2024/02/01 06:05:17;;;;;;;18.63;3.63;;;;;;;;;;5049642;28;20170;-71
2024/02/01 06:07:42;;;;;;;16.90;3.00;;;;;;;;;;5051220;28;20560;-72
2024/02/01 06:10:07;;;;;;;16.43;2.50;;;;;;;;;;5049201;28;20209;-72
2024/02/01 06:12:32;;;;;;;15.33;3.50;;;;;;;;;;5051410;28;20764;-73
2024/02/01 06:14:58;;;;;;;17.70;3.83;;;;;;;;;;5049441;28;20304;-72
2024/02/01 06:17:23;;;;;;;11.17;2.00;;;;;;;;;;5046118;28;20687;-72
2024/02/01 06:19:48;;;;;;;12.50;2.47;;;;;;;;;;5045054;28;20201;-71
2024/02/01 06:22:13;;;;;;;7.80;2.33;;;;;;;;;;5031767;28;20195;-72
2024/02/01 06:24:39;;;;;;;9.70;2.20;;;;;;;;;;5045482;28;20189;-72
2024/02/01 06:27:05;;;;;;;12.57;2.33;;;;;;;;;;5044887;28;20172;-72
2024/02/01 06:29:30;;;;;;;10.90;2.73;;;;;;;;;;5025273;28;20778;-73
2024/02/01 06:31:56;;;;;;;10.53;2.50;;;;;;;;;;5030147;28;20823;-71
2024/02/01 06:34:38;;;;;;;10.73;2.47;;;;;;;;;;5044392;28;20198;-71
2024/02/01 06:37:04;;;;;;;15.50;2.63;;;;;;;;;;5035573;28;20173;-71
2024/02/01 06:42:24;;;;;;;9.87;2.00;;;;;;;;;;5049229;28;20216;-71
2024/02/01 06:44:57;;;;;;;13.07;2.77;;;;;;;;;;5049542;28;20565;-72
2024/02/01 06:47:35;;;;;;;17.03;2.40;;;;;;;;;;5051604;28;20267;-72
2024/02/01 06:50:03;;;;;;;20.10;3.60;;;;;;;;;;5033793;28;20193;-71
2024/02/01 06:52:40;;;;;;;11.60;2.70;;;;;;;;;;5051328;28;20186;-72
2024/02/01 07:03:04;;;;;;;17.10;3.27;;;;;;;;;;5042813;28;20180;-71
2024/02/01 07:08:13;;;;;;;16.20;2.53;;;;;;;;;;5049029;28;20204;-73
2024/02/01 07:10:47;;;;;;;14.23;3.00;;;;;;;;;;5048852;28;20693;-72
2024/02/01 07:13:24;;;;;;;37.37;3.87;;;;;;;;;;5044133;28;20271;-71
2024/02/01 07:15:52;;;;;;;11.67;2.60;;;;;;;;;;5047943;28;20209;-71
2024/02/01 07:18:20;;;;;;;12.53;2.77;;;;;;;;;;5031468;28;20205;-72
2024/02/01 07:26:00;;;;;;;15.63;3.63;;;;;;;;;;5043396;28;20194;-72
2024/02/01 07:58:52;;;;;;;15.50;2.47;;;;;;;;;;5043592;28;20196;-72
2024/02/01 08:01:18;;;;;;;11.93;2.47;;;;;;;;;;5047373;28;20691;-72
2024/02/01 08:09:13;;;;;;;19.50;2.87;;;;;;;;;;5046346;28;20223;-72
2024/02/01 08:11:41;;;;;;;12.33;3.00;;;;;;;;;;5072549;22;20233;-69
2024/02/01 08:14:07;;;;;;;11.63;2.50;;;;;;;;;;5065585;28;20208;-69
2024/02/01 08:16:32;;;;;;;11.03;3.33;;;;;;;;;;5064802;28;20230;-70
2024/02/01 08:18:57;;;;;;;14.00;3.43;;;;;;;;;;5067757;28;20630;-70
2024/02/01 08:21:25;;;;;;;16.57;3.53;;;;;;;;;;5037654;28;20335;-70
2024/02/01 08:23:54;;;;;;;16.83;3.43;;;;;;;;;;5047661;28;20594;-72
2024/02/01 08:26:19;;;;;;;15.43;3.20;;;;;;;;;;5048779;28;20708;-70
2024/02/01 08:28:45;;;;;;;16.70;2.60;;;;;;;;;;5048603;28;20323;-71
2024/02/01 08:31:14;;;;;;;15.80;2.57;;;;;;;;;;5045273;28;20595;-70
2024/02/01 08:33:42;;;;;;;12.73;2.90;;;;;;;;;;5052703;28;20174;-72
2024/02/01 08:36:08;;;;;;;14.73;3.20;;;;;;;;;;5032394;28;20193;-71
2024/02/01 08:38:34;;;;;;;19.40;2.97;;;;;;;;;;5050433;28;20173;-72
2024/02/01 08:41:03;;;;;;;14.67;3.00;;;;;;;;;;5032998;28;20267;-71
2024/02/01 08:43:28;;;;;;;19.47;3.27;;;;;;;;;;5049144;28;20585;-70
2024/02/01 08:45:53;;;;;;;12.63;3.60;;;;;;;;;;5046111;28;20182;-70
2024/02/01 08:48:20;;;;;;;15.73;3.10;;;;;;;;;;5050260;28;20178;-70
2024/02/01 08:50:50;;;;;;;15.87;2.80;;;;;;;;;;5032609;28;20233;-70
2024/02/01 08:53:17;;;;;;;14.73;3.10;;;;;;;;;;5050858;28;20177;-70
2024/02/01 08:55:43;;;;;;;9.83;4.20;;;;;;;;;;5053107;28;20244;-71
2024/02/01 08:58:08;;;;;;;16.53;3.37;;;;;;;;;;5047155;28;20205;-70
2024/02/01 09:00:34;;;;;;;15.27;3.30;;;;;;;;;;5042483;28;20217;-70
2024/02/01 09:03:06;;;;;;;11.87;2.40;;;;;;;;;;5048318;28;20638;-70
2024/02/01 09:05:31;;;;;;;15.30;2.60;;;;;;;;;;5019012;28;20196;-71
2024/02/01 09:07:57;;;;;;;12.83;3.23;;;;;;;;;;5047037;28;20209;-71
2024/02/01 09:10:22;;;;;;;8.40;3.17;;;;;;;;;;5049146;28;20244;-70
2024/02/01 09:12:47;;;;;;;11.63;2.60;;;;;;;;;;5031180;28;20669;-71
2024/02/01 09:15:14;;;;;;;13.77;3.03;;;;;;;;;;5045992;28;20201;-70
2024/02/01 09:17:40;;;;;;;12.87;3.30;;;;;;;;;;5044840;28;20189;-70
2024/02/01 09:20:17;;;;;;;14.67;3.73;;;;;;;;;;5047859;28;20209;-70
2024/02/01 09:22:42;;;;;;;8.90;2.30;;;;;;;;;;5045431;28;20182;-70
2024/02/01 09:25:08;;;;;;;9.37;2.83;;;;;;;;;;5048171;28;20703;-70
2024/02/01 09:27:33;;;;;;;19.47;3.43;;;;;;;;;;5049731;28;20186;-70
2024/02/01 09:30:00;;;;;;;17.73;3.57;;;;;;;;;;5044846;28;20186;-70
2024/02/01 09:32:26;;;;;;;13.63;2.47;;;;;;;;;;5052347;28;20182;-70
2024/02/01 09:34:52;;;;;;;17.60;2.93;;;;;;;;;;5052948;28;20692;-70
2024/02/01 09:37:22;;;;;;;9.60;2.40;;;;;;;;;;5050159;28;20170;-70
2024/02/01 09:39:47;;;;;;;26.07;4.03;;;;;;;;;;5054058;28;20607;-69
2024/02/01 09:42:12;;;;;;;19.60;4.23;;;;;;;;;;5036108;28;20272;-69
2024/02/01 09:44:38;;;;;;;17.83;3.63;;;;;;;;;;5034434;28;20197;-69
2024/02/01 09:47:05;;;;;;;18.57;3.93;;;;;;;;;;5053196;28;20264;-70
2024/02/01 09:49:31;;;;;;;14.33;3.10;;;;;;;;;;5054311;28;20538;-70
2024/02/01 09:51:56;;;;;;;21.00;3.80;;;;;;;;;;5052960;28;20275;-70
2024/02/01 09:54:22;;;;;;;13.40;3.50;;;;;;;;;;5053561;28;20204;-72
2024/02/01 09:56:48;;;;;;;21.33;4.13;;;;;;;;;;5043354;28;20182;-70
2024/02/01 09:59:14;;;;;;;13.53;4.23;;;;;;;;;;5039587;28;20177;-71
2024/02/01 10:01:40;;;;;;;19.65;4.00;;;;;;;;;;5040123;28;20586;-72
2024/02/01 10:04:10;;;;;;;13.00;2.92;;;;;;;;;;5043800;28;20274;-70
2024/02/01 10:06:37;;;;;;;16.98;3.03;;;;;;;;;;5053699;28;20174;-69
2024/02/01 10:09:21;;;;;;;10.63;3.03;;;;;;;;;;5052615;28;20258;-69
2024/02/01 10:11:46;;;;;;;17.50;4.25;;;;;;;;;;5053348;28;20306;-69
2024/02/01 10:14:13;;;;;;;12.93;3.35;;;;;;;;;;5053369;28;20648;-70
2024/02/01 10:16:39;;;;;;;27.85;4.57;;;;;;;;;;5053911;28;20260;-70
2024/02/01 10:19:08;;;;;;;15.13;3.78;;;;;;;;;;5043280;28;20257;-70
2024/02/01 10:21:34;;;;;;;10.95;2.70;;;;;;;;;;5046366;28;20260;-70
2024/02/01 10:24:06;;;;;;;18.90;3.80;;;;;;;;;;5049240;28;20296;-69
2024/02/01 10:26:32;;;;;;;11.85;3.60;;;;;;;;;;5051711;28;20268;-72
2024/02/01 10:28:57;;;;;;;13.48;4.57;;;;;;;;;;5046291;28;20240;-72
2024/02/01 10:31:22;;;;;;;13.02;3.72;;;;;;;;;;5042978;28;20707;-70
2024/02/01 10:33:48;;;;;;;16.50;3.78;;;;;;;;;;5034621;28;20189;-71
2024/02/01 10:36:20;;;;;;;16.55;4.13;;;;;;;;;;5052611;28;20166;-71
2024/02/01 10:38:47;;;;;;;15.80;4.10;;;;;;;;;;5034960;28;20227;-70
2024/02/01 10:41:13;;;;;;;13.27;3.67;;;;;;;;;;5052647;28;20224;-70
2024/02/01 10:43:41;;;;;;;14.77;3.13;;;;;;;;;;5051913;28;20260;-70
2024/02/01 10:46:07;;;;;;;31.20;4.07;;;;;;;;;;5052041;28;20178;-70
2024/02/01 10:48:50;;;;;;;14.18;3.30;;;;;;;;;;5046193;28;20240;-70
2024/02/01 10:51:16;;;;;;;18.10;3.00;;;;;;;;;;5048783;28;20602;-71
2024/02/01 10:53:43;;;;;;;18.55;3.92;;;;;;;;;;5051599;28;20173;-71
2024/02/01 10:56:14;;;;;;;17.38;3.67;;;;;;;;;;5028619;28;20178;-70
2024/02/01 10:58:41;;;;;;;14.02;3.20;;;;;;;;;;5050984;28;20227;-71
2024/02/01 11:01:07;;;;;;;19.98;3.60;;;;;;;;;;5051903;28;20202;-70
2024/02/01 11:03:32;;;;;;;13.10;3.55;;;;;;;;;;5041441;28;20174;-70
2024/02/01 11:05:57;;;;;;;15.88;3.30;;;;;;;;;;5032531;28;20719;-71
2024/02/01 11:08:30;;;;;;;23.17;3.60;;;;;;;;;;5043192;28;20229;-70
2024/02/01 11:11:00;;;;;;;13.77;2.78;;;;;;;;;;5048580;28;20308;-72
2024/02/01 11:13:29;;;;;;;15.73;3.22;;;;;;;;;;5050184;28;20182;-74
2024/02/01 11:15:54;;;;;;;18.33;3.28;;;;;;;;;;5030341;28;20197;-70
2024/02/01 11:18:20;;;;;;;17.83;4.03;;;;;;;;;;5051491;28;20192;-71
2024/02/01 11:20:53;;;;;;;11.30;2.83;;;;;;;;;;5029094;28;20190;-70
2024/02/01 11:23:18;;;;;;;17.88;3.95;;;;;;;;;;5051907;28;20239;-70
2024/02/01 11:25:43;;;;;;;14.70;3.75;;;;;;;;;;5042807;28;20185;-70
2024/02/01 11:28:11;;;;;;;18.88;2.70;;;;;;;;;;5043589;28;20716;-72
2024/02/01 11:30:37;;;;;;;12.38;3.05;;;;;;;;;;5047483;28;20228;-70
2024/02/01 11:33:14;;;;;;;21.95;3.72;;;;;;;;;;5051308;28;20250;-70
2024/02/01 11:35:40;;;;;;;9.87;2.83;;;;;;;;;;5028414;28;20251;-70
2024/02/01 11:38:06;;;;;;;13.93;2.35;;;;;;;;;;5048592;28;20178;-71
2024/02/01 11:40:32;;;;;;;13.38;3.15;;;;;;;;;;5051286;28;20197;-70
2024/02/01 11:42:59;;;;;;;13.77;2.92;;;;;;;;;;5033706;28;20174;-70
2024/02/01 11:45:24;;;;;;;12.88;2.72;;;;;;;;;;5055054;28;20185;-70
2024/02/01 11:47:51;;;;;;;15.82;3.65;;;;;;;;;;5042566;28;20189;-70
2024/02/01 11:50:17;;;;;;;12.05;3.08;;;;;;;;;;5047844;28;20197;-70
2024/02/01 11:52:43;;;;;;;15.52;3.67;;;;;;;;;;5047019;28;20178;-71
2024/02/01 11:55:09;;;;;;;15.27;3.42;;;;;;;;;;5046468;28;20212;-71
2024/02/01 11:57:34;;;;;;;11.73;2.90;;;;;;;;;;5050379;28;20174;-71
2024/02/01 12:00:02;;;;;;;13.52;2.92;;;;;;;;;;5047455;28;20633;-69
2024/02/01 12:02:30;;;;;;;13.85;2.72;;;;;;;;;;5040121;28;20177;-70
2024/02/01 12:04:56;;;;;;;15.82;3.33;;;;;;;;;;5039758;28;20264;-70
2024/02/01 12:07:23;;;;;;;14.52;3.33;;;;;;;;;;5049590;28;20204;-70
2024/02/01 12:09:48;;;;;;;33.88;4.57;;;;;;;;;;5050824;28;20629;-70
2024/02/01 12:12:18;;;;;;;19.20;2.95;;;;;;;;;;5050984;28;20224;-70
2024/02/01 12:14:43;;;;;;;16.55;3.10;;;;;;;;;;5050833;28;20203;-70
2024/02/01 12:17:08;;;;;;;18.45;3.20;;;;;;;;;;5050647;28;20257;-70
2024/02/01 12:19:38;;;;;;;14.63;3.33;;;;;;;;;;5024151;28;20182;-70
2024/02/01 12:22:04;;;;;;;23.77;4.65;;;;;;;;;;5038358;28;20209;-70
2024/02/01 12:24:32;;;;;;;10.65;2.80;;;;;;;;;;5026412;28;20181;-71
2024/02/01 12:26:57;;;;;;;9.77;2.30;;;;;;;;;;5039227;28;20326;-70
2024/02/01 12:29:23;;;;;;;13.32;3.13;;;;;;;;;;5050184;28;20660;-70
2024/02/01 12:31:49;;;;;;;16.77;3.65;;;;;;;;;;5045046;28;20624;-69
2024/02/01 12:34:15;;;;;;;17.08;3.10;;;;;;;;;;5050412;28;20198;-70
2024/02/01 12:36:40;;;;;;;13.15;3.25;;;;;;;;;;5048206;28;20605;-71
2024/02/01 12:39:05;;;;;;;17.27;3.75;;;;;;;;;;5032501;28;20173;-70
2024/02/01 12:41:34;;;;;;;8.90;2.40;;;;;;;;;;5031958;28;20673;-71
2024/02/01 12:44:02;;;;;;;13.52;3.30;;;;;;;;;;5042596;28;20203;-70
2024/02/01 12:46:28;;;;;;;11.95;2.40;;;;;;;;;;5050151;28;20184;-70
2024/02/01 12:48:53;;;;;;;11.68;2.60;;;;;;;;;;5050157;28;20182;-70
2024/02/01 12:51:26;;;;;;;14.35;3.95;;;;;;;;;;5047985;28;20209;-70
2024/02/01 12:53:51;;;;;;;12.70;2.90;;;;;;;;;;5040101;28;20178;-70
2024/02/01 12:56:20;;;;;;;25.92;3.85;;;;;;;;;;5030411;28;20177;-70
2024/02/01 12:58:45;;;;;;;11.65;2.72;;;;;;;;;;5050212;28;20637;-71
2024/02/01 13:01:11;;;;;;;12.52;3.10;;;;;;;;;;5047849;28;20327;-70
2024/02/01 13:03:37;;;;;;;12.45;3.20;;;;;;;;;;5056008;28;20550;-69
2024/02/01 13:06:02;;;;;;;15.35;3.20;;;;;;;;;;5053046;28;20173;-71
2024/02/01 13:08:28;;;;;;;10.43;2.58;;;;;;;;;;5036078;28;20246;-71
2024/02/01 13:10:53;;;;;;;11.07;3.53;;;;;;;;;;5047007;28;20260;-69
2024/02/01 13:13:18;;;;;;;14.25;3.63;;;;;;;;;;5047221;28;20707;-69
2024/02/01 13:15:46;;;;;;;12.02;3.70;;;;;;;;;;5055251;28;20672;-69
2024/02/01 13:18:11;;;;;;;17.98;3.40;;;;;;;;;;5043582;28;20177;-70
2024/02/01 13:20:37;;;;;;;14.75;3.55;;;;;;;;;;5052391;28;20679;-69
2024/02/01 13:23:08;;;;;;;15.50;2.80;;;;;;;;;;5054284;28;20176;-70
2024/02/01 13:25:34;;;;;;;14.93;3.40;;;;;;;;;;5048227;28;20177;-69
2024/02/01 13:27:59;;;;;;;21.23;2.90;;;;;;;;;;5044798;28;20201;-70
2024/02/01 13:30:26;;;;;;;21.83;3.55;;;;;;;;;;5035781;28;20580;-70
2024/02/01 13:32:52;;;;;;;10.85;2.88;;;;;;;;;;5049063;28;20184;-72
2024/02/01 13:35:17;;;;;;;13.32;3.42;;;;;;;;;;5032095;28;20206;-70
2024/02/01 13:37:46;;;;;;;24.58;4.50;;;;;;;;;;5053926;28;20457;-70
2024/02/01 13:40:14;;;;;;;16.55;2.40;;;;;;;;;;5053811;28;20538;-70
2024/02/01 13:42:41;;;;;;;10.55;2.63;;;;;;;;;;5054617;28;20452;-70
2024/02/01 13:45:07;;;;;;;19.08;2.92;;;;;;;;;;5054212;28;20170;-71
2024/02/01 13:47:32;;;;;;;12.50;3.13;;;;;;;;;;5053041;28;20707;-70
2024/02/01 13:49:57;;;;;;;17.63;2.75;;;;;;;;;;5053550;28;20197;-69
2024/02/01 13:52:22;;;;;;;9.90;2.03;;;;;;;;;;5053516;28;20276;-69
2024/02/01 13:54:48;;;;;;;8.77;2.47;;;;;;;;;;5052972;28;20190;-69
2024/02/01 13:57:13;;;;;;;18.10;3.08;;;;;;;;;;5052964;28;20649;-70
2024/02/01 13:59:38;;;;;;;13.43;2.50;;;;;;;;;;5042026;28;20552;-70
2024/02/01 14:02:03;;;;;;;16.63;3.47;;;;;;;;;;5051973;28;20204;-71
2024/02/01 14:04:29;;;;;;;22.02;3.38;;;;;;;;;;5051543;28;20221;-70
2024/02/01 14:06:54;;;;;;;15.20;2.70;;;;;;;;;;5053188;28;20177;-69
2024/02/01 14:09:22;;;;;;;14.30;2.60;;;;;;;;;;5048877;28;20627;-69
2024/02/01 14:11:47;;;;;;;13.35;3.42;;;;;;;;;;5064230;22;20233;-70
2024/02/01 14:14:12;;;;;;;8.68;2.63;;;;;;;;;;5044954;28;20684;-69
2024/02/01 14:16:38;;;;;;;13.48;2.80;;;;;;;;;;5039988;28;20917;-69
2024/02/01 14:19:04;;;;;;;11.15;3.53;;;;;;;;;;5062871;28;20169;-69
2024/02/01 14:21:29;;;;;;;10.75;2.45;;;;;;;;;;5055642;28;20220;-70
2024/02/01 14:23:56;;;;;;;17.77;4.32;;;;;;;;;;5051263;28;20169;-69
2024/02/01 14:26:22;;;;;;;16.13;2.92;;;;;;;;;;5033338;28;20185;-69
2024/02/01 14:28:47;;;;;;;13.18;2.25;;;;;;;;;;5033802;28;20223;-70
2024/02/01 14:31:13;;;;;;;22.35;3.85;;;;;;;;;;5051937;28;20691;-69
2024/02/01 14:33:38;;;;;;;15.10;3.15;;;;;;;;;;5047150;28;20551;-70
2024/02/01 14:36:03;;;;;;;17.50;2.92;;;;;;;;;;5045207;28;20280;-70
2024/02/01 14:38:29;;;;;;;18.98;2.75;;;;;;;;;;5051502;28;20174;-71
2024/02/01 14:40:54;;;;;;;11.43;2.63;;;;;;;;;;5034089;28;20324;-69
2024/02/01 14:43:19;;;;;;;11.18;2.40;;;;;;;;;;5052129;28;20660;-71
2024/02/01 14:45:45;;;;;;;11.65;3.28;;;;;;;;;;5050855;28;20588;-69
2024/02/01 14:48:10;;;;;;;17.83;3.00;;;;;;;;;;5048969;28;20184;-71
2024/02/01 14:50:35;;;;;;;14.85;2.97;;;;;;;;;;5048755;28;20224;-70
2024/02/01 14:53:00;;;;;;;13.63;2.40;;;;;;;;;;5045132;28;20174;-70
2024/02/01 14:55:25;;;;;;;17.05;3.50;;;;;;;;;;5026995;28;20284;-70
2024/02/01 14:57:51;;;;;;;19.50;2.92;;;;;;;;;;5051409;28;20188;-72
2024/02/01 15:00:25;;;;;;;16.85;2.88;;;;;;;;;;5049374;28;20188;-70
2024/02/01 15:02:51;;;;;;;15.40;3.50;;;;;;;;;;5034247;28;20656;-68
2024/02/01 15:05:17;;;;;;;12.18;3.20;;;;;;;;;;5052284;28;20186;-71
2024/02/01 15:07:42;;;;;;;19.38;3.13;;;;;;;;;;5046044;28;20307;-69
2024/02/01 15:10:14;;;;;;;7.43;2.55;;;;;;;;;;5044384;28;20170;-70
2024/02/01 15:12:39;;;;;;;11.02;2.88;;;;;;;;;;5050835;28;20602;-69
2024/02/01 15:15:04;;;;;;;11.93;2.07;;;;;;;;;;5051890;28;20197;-69
2024/02/01 15:17:30;;;;;;;12.70;2.67;;;;;;;;;;5049930;28;20628;-68
2024/02/01 15:19:56;;;;;;;12.80;3.07;;;;;;;;;;5043491;28;20173;-69
2024/02/01 15:22:21;;;;;;;10.90;2.70;;;;;;;;;;5052110;28;20565;-70